PHE weather

Port Hedland International Airport
Port Hedland, Western Australia, Australia

Public forecast

Using degrees Celsius for public forecast. Weather courtesy of forecast.io.

METAR (pilot weather report)

Retrieved 2019/03/22 16:30 UTC (15 seconds ago):

YPPD 221630Z AUTO /////KT //// // ////// 29/25 Q1003 RF//./////./ PRESENT WEATHER SENSOR US

TAF (pilot weather forecast)

Retrieved 2019/03/22 12:36 UTC (4 hours ago):

TAF YPPD 221110Z 2212/2312 07018G28KT 9999 -SHRA BKN020 FM230200 07030G42KT 9999 -RA SCT020 BKN030 PROB30 TEMPO 2212/2312 VRB35G50KT 1000 TSRA BKN010 FEW035CB